logo
Search for airport 
image banner adimage banner adimage banner ad
image banner ad

EHS033 - Marknesse

Located in , Netherlands

ICAO - , IATA -

Data provided by Airmate  

General information

Coordinates: N52°40'52" E5°55'32"
Elevation is feet MSL.
 
View others Airports in Gelderland

Operational data

Special qualification required
Current time UTC:
Current local time:
Weather at : EHLE - Lelystad/Lelystad ( 38 km )
METAR: EHLE 150825Z AUTO 21018KT 170V240 9999 SCT023 SCT032 10/05 Q1006 NOSIG
TAF: TAF EHLE 150447Z 1506/1612 21010KT CAVOK BECMG 1507/1510 22018G30KT SCT018 BKN025 TEMPO 1509/1513 24022G35KT 4000 SHRA RA SCT015CB BKN020 TEMPO 1512/1514 30025G42KT 2000 +SHRAGS TSRAGS SCT008 BKN012 BKN015CB BECMG 1513/1515 29018G30KT SCT025 TEMPO 1516/1522 29022G35KT 4000 SHRAGS SCT018CB BKN022 BECMG 1521/1523 27018G28KT FEW040 TEMPO 1601/1606 6000 SHRA -SHRAGS SCT015CB BKN020 BECMG 1606/1609 30012KT
View NOTAMs / SUP AIP / TFR affecting this airport [VIEW]
Communications frequencies: [VIEW]

Runways:

Airport contact information

Address: Netherlands

Satellite view of EHS033